Gorgan, Iran
Current Conditions -  °F | °C
As of 3:00 PM on Sunday 21 Dec 2014 (Local Time) from OING Reporting Station
Haze Haze  
Wind Chill: 52°   Ceiling: 8000
Heat Index: 52°   Visibility: 1.8mi
Dew Point: 48°   Wind: 0mph
Humidity: 88%   Direction: NA
Pressure: 30.12"   Gusts: NA
Location:  36.83°N, 54.48°E
Report Text: OING 211200Z 00000KT 3000 BR SCT010 SCT025 OVC080 11/09 Q1020
Loading
Personal Weather Stations






























Interactive Weather Map New forecast layout! Learn more

10-Day Weather Forecast

Advertisements
Track Severe Weather on mobile